createdAt,value
2023-02-15T00:02:07.940Z,15.75
2023-02-15T00:04:49.508Z,14.88
2023-02-15T00:07:18.622Z,16.20
2023-02-15T00:09:47.769Z,15.93
2023-02-15T00:12:16.185Z,15.90
2023-02-15T00:14:43.319Z,15.88
2023-02-15T00:17:10.355Z,15.88
2023-02-15T00:19:37.376Z,16.15
2023-02-15T00:22:04.118Z,16.33
2023-02-15T00:24:30.747Z,16.73
2023-02-15T00:26:57.413Z,17.33
2023-02-15T00:29:24.198Z,15.55
2023-02-15T00:31:50.932Z,15.20
2023-02-15T00:34:21.101Z,14.80
2023-02-15T00:36:48.318Z,15.82
2023-02-15T00:39:15.870Z,15.82
2023-02-15T00:41:42.638Z,15.63
2023-02-15T00:44:09.469Z,15.90
2023-02-15T00:46:36.666Z,17.23
2023-02-15T00:51:44.009Z,16.35
2023-02-15T00:54:10.608Z,16.35
2023-02-15T00:56:37.313Z,14.98
2023-02-15T00:59:03.954Z,16.00
2023-02-15T01:01:30.631Z,16.35
2023-02-15T01:03:57.415Z,14.68
2023-02-15T01:06:24.015Z,15.38
2023-02-15T01:09:04.607Z,16.63
2023-02-15T01:11:31.239Z,15.40
2023-02-15T01:13:59.589Z,15.82
2023-02-15T01:16:29.236Z,17.05
2023-02-15T01:18:56.035Z,15.45
2023-02-15T01:21:25.025Z,16.15
2023-02-15T01:23:51.911Z,16.40
2023-02-15T01:26:18.805Z,15.93
2023-02-15T01:28:46.372Z,16.33
2023-02-15T01:31:16.709Z,17.40
2023-02-15T01:33:43.866Z,15.32
2023-02-15T01:36:11.165Z,15.70
2023-02-15T01:38:37.979Z,16.17
2023-02-15T01:41:23.456Z,16.52
2023-02-15T01:43:54.417Z,17.00
2023-02-15T01:49:19.159Z,18.73
2023-02-15T01:51:49.716Z,17.65
2023-02-15T01:54:22.645Z,18.25
2023-02-15T01:56:49.816Z,18.00
2023-02-15T02:02:58.551Z,18.23
2023-02-15T02:05:26.007Z,17.65
2023-02-15T02:07:55.949Z,17.75
2023-02-15T02:10:24.311Z,19.50
2023-02-15T02:12:54.877Z,17.65
2023-02-15T02:15:29.817Z,17.80
2023-02-15T02:18:05.425Z,18.45
2023-02-15T02:21:03.758Z,21.25
2023-02-15T02:23:46.769Z,19.58
2023-02-15T02:26:38.015Z,19.73
2023-02-15T02:29:26.187Z,20.10
2023-02-15T02:35:11.564Z,21.95
2023-02-15T02:37:40.839Z,20.73
2023-02-15T02:43:29.084Z,19.77
2023-02-15T02:46:06.287Z,21.08
2023-02-15T02:48:34.581Z,20.20
2023-02-15T02:51:01.487Z,21.38
2023-02-15T02:53:31.576Z,20.15
2023-02-15T02:56:09.769Z,21.75
2023-02-15T02:58:48.672Z,21.10
2023-02-15T03:01:37.039Z,21.05
2023-02-15T03:04:10.274Z,19.38
2023-02-15T03:07:03.017Z,20.63
2023-02-15T03:09:44.011Z,21.30
2023-02-15T03:12:23.115Z,21.63
2023-02-15T03:14:54.234Z,19.55
2023-02-15T03:17:23.856Z,19.80
2023-02-15T03:19:54.440Z,19.02
2023-02-15T03:22:52.064Z,20.38
2023-02-15T03:25:23.892Z,19.35
2023-02-15T03:27:56.796Z,19.85
2023-02-15T03:30:24.342Z,19.40
2023-02-15T03:32:52.696Z,20.05
2023-02-15T03:35:24.788Z,20.20
2023-02-15T03:38:11.482Z,20.17
2023-02-15T03:41:06.608Z,22.33
2023-02-15T03:43:40.231Z,20.98
2023-02-15T03:46:21.386Z,21.10
2023-02-15T03:48:53.649Z,20.75
2023-02-15T03:51:35.775Z,21.10
2023-02-15T03:54:08.185Z,21.73
2023-02-15T03:56:37.274Z,19.80
2023-02-15T04:02:03.997Z,21.10
2023-02-15T04:04:42.103Z,19.65
2023-02-15T04:07:10.403Z,20.50
2023-02-15T04:09:55.902Z,20.02
2023-02-15T04:12:22.676Z,20.23
2023-02-15T04:15:07.902Z,18.88
2023-02-15T04:17:34.763Z,19.33
2023-02-15T04:21:26.873Z,21.10
2023-02-15T04:26:38.559Z,15.00
2023-02-15T04:29:05.190Z,22.05
2023-02-15T04:31:31.951Z,20.48
2023-02-15T04:33:58.614Z,20.80
2023-02-15T04:36:25.274Z,20.05
2023-02-15T04:38:51.870Z,21.58
2023-02-15T04:43:57.535Z,19.83
2023-02-15T04:46:24.238Z,19.65
2023-02-15T04:48:50.916Z,21.33
2023-02-15T04:51:17.673Z,20.95
2023-02-15T04:53:44.395Z,21.40
2023-02-15T04:56:11.259Z,21.92
2023-02-15T04:58:40.214Z,20.85
2023-02-15T05:01:07.061Z,20.95
2023-02-15T05:03:33.928Z,20.38
2023-02-15T05:06:00.812Z,20.10
2023-02-15T05:08:27.854Z,20.27
2023-02-15T05:10:54.534Z,21.73
2023-02-15T05:13:21.369Z,18.90
2023-02-15T05:15:52.974Z,18.63
2023-02-15T05:18:21.575Z,19.15
2023-02-15T05:20:58.316Z,18.25
2023-02-15T05:23:25.030Z,17.08
2023-02-15T05:26:10.748Z,16.05
2023-02-15T05:28:38.433Z,16.20
2023-02-15T05:31:13.996Z,15.98
2023-02-15T05:33:41.495Z,15.30
2023-02-15T05:36:08.707Z,15.57
2023-02-15T05:38:37.884Z,14.45
2023-02-15T05:41:08.661Z,14.25
2023-02-15T05:43:35.862Z,14.88
2023-02-15T05:46:03.783Z,13.32
2023-02-15T05:48:31.600Z,14.90
2023-02-15T05:51:02.339Z,14.07
2023-02-15T05:53:30.669Z,13.38
2023-02-15T05:58:41.722Z,13.60
2023-02-15T06:01:18.189Z,12.55
2023-02-15T06:03:46.302Z,13.75
2023-02-15T06:06:13.139Z,13.25
2023-02-15T06:08:39.797Z,13.15
2023-02-15T06:11:06.633Z,13.45
2023-02-15T06:13:36.590Z,12.88
2023-02-15T06:16:05.583Z,13.65
2023-02-15T06:18:32.440Z,14.45
2023-02-15T06:20:59.131Z,13.30
2023-02-15T06:23:25.842Z,13.38
2023-02-15T06:25:52.484Z,13.35
2023-02-15T06:28:19.199Z,13.32
2023-02-15T06:30:45.937Z,13.32
2023-02-15T06:33:12.596Z,13.10
2023-02-15T06:35:39.266Z,14.30
2023-02-15T06:38:05.885Z,13.93
2023-02-15T06:40:32.508Z,14.02
2023-02-15T06:42:59.234Z,14.32
2023-02-15T06:45:25.958Z,13.85
2023-02-15T06:47:52.660Z,14.38
2023-02-15T06:50:19.679Z,13.65
2023-02-15T06:52:46.508Z,13.30
2023-02-15T06:55:13.134Z,14.13
2023-02-15T06:57:39.797Z,14.60
2023-02-15T07:00:07.161Z,13.88
2023-02-15T07:02:33.815Z,13.30
2023-02-15T07:05:00.621Z,13.48
2023-02-15T07:07:27.377Z,13.60
2023-02-15T07:09:54.021Z,13.90
2023-02-15T07:12:39.420Z,14.60
2023-02-15T07:15:07.431Z,14.50
2023-02-15T07:17:36.065Z,14.55
2023-02-15T07:20:09.447Z,14.43
2023-02-15T07:22:37.379Z,15.18
2023-02-15T07:25:06.182Z,14.43
2023-02-15T07:27:33.576Z,15.45
2023-02-15T07:30:01.227Z,16.10
2023-02-15T07:32:33.053Z,14.98
2023-02-15T07:35:00.303Z,16.10
2023-02-15T07:37:27.924Z,14.75
2023-02-15T07:39:54.603Z,16.98
2023-02-15T07:42:22.153Z,14.77
2023-02-15T07:44:48.879Z,14.45
2023-02-15T07:47:15.559Z,14.38
2023-02-15T07:49:42.225Z,14.82
2023-02-15T07:52:08.863Z,14.25
2023-02-15T07:54:35.511Z,17.20
2023-02-15T07:57:03.073Z,17.40
2023-02-15T07:59:29.771Z,16.63
2023-02-15T08:01:57.601Z,16.02
2023-02-15T08:04:25.504Z,17.13
2023-02-15T08:06:55.844Z,16.17
2023-02-15T08:09:23.421Z,16.17
2023-02-15T08:12:40.281Z,16.30
2023-02-15T08:15:07.230Z,15.50
2023-02-15T08:17:37.720Z,15.20
2023-02-15T08:20:04.667Z,15.95
2023-02-15T08:22:32.322Z,15.38
2023-02-15T08:24:58.982Z,13.90
2023-02-15T08:27:27.729Z,15.23
2023-02-15T08:29:54.439Z,14.20
2023-02-15T08:32:21.154Z,14.60
2023-02-15T08:34:48.307Z,14.75
2023-02-15T08:37:15.006Z,15.90
2023-02-15T08:39:43.921Z,14.02
2023-02-15T08:42:10.600Z,12.85
2023-02-15T08:44:37.340Z,12.05
2023-02-15T08:47:05.022Z,14.55
2023-02-15T08:49:32.175Z,13.00
2023-02-15T08:51:58.890Z,12.27
2023-02-15T08:54:25.596Z,13.45
2023-02-15T08:56:52.262Z,11.18
2023-02-15T08:59:24.067Z,12.88
2023-02-15T09:01:52.466Z,13.68
2023-02-15T09:04:19.806Z,13.45
2023-02-15T09:06:49.347Z,12.88
2023-02-15T09:09:17.718Z,13.75
2023-02-15T09:11:47.071Z,14.75
2023-02-15T09:14:16.353Z,12.98
2023-02-15T09:16:49.679Z,11.98
2023-02-15T09:19:19.125Z,14.43
2023-02-15T09:21:46.284Z,11.90
2023-02-15T09:26:06.382Z,13.77
2023-02-15T09:28:33.987Z,12.52
2023-02-15T09:31:28.783Z,12.32
2023-02-15T09:33:56.336Z,11.27
2023-02-15T09:36:29.163Z,12.88
2023-02-15T09:39:04.243Z,10.18
2023-02-15T09:41:49.039Z,14.57
2023-02-15T09:44:41.558Z,12.45
2023-02-15T09:47:45.259Z,13.48
2023-02-15T09:50:17.928Z,11.57
2023-02-15T09:53:03.867Z,12.02
2023-02-15T09:55:56.198Z,13.55
2023-02-15T09:58:51.927Z,12.98
2023-02-15T10:01:40.201Z,12.95
2023-02-15T10:04:40.811Z,13.02
2023-02-15T10:07:21.376Z,13.55
2023-02-15T10:10:00.901Z,13.65
2023-02-15T10:12:47.504Z,13.38
2023-02-15T10:15:25.248Z,13.95
2023-02-15T10:18:07.396Z,14.77
2023-02-15T10:21:06.820Z,15.05
2023-02-15T10:23:49.001Z,14.70
2023-02-15T10:26:23.952Z,14.40
2023-02-15T10:28:56.417Z,13.60
2023-02-15T10:31:42.378Z,14.70
2023-02-15T10:34:11.788Z,15.25
2023-02-15T10:37:06.250Z,14.88
2023-02-15T10:39:44.822Z,14.50
2023-02-15T10:42:27.585Z,15.07
2023-02-15T10:45:08.180Z,14.18
2023-02-15T10:47:44.693Z,14.30
2023-02-15T10:50:23.354Z,15.20
2023-02-15T10:55:43.862Z,14.05
2023-02-15T10:58:22.656Z,15.23
2023-02-15T11:01:11.419Z,14.90
2023-02-15T11:04:05.522Z,14.65
2023-02-15T11:06:35.168Z,14.82
2023-02-15T11:09:10.764Z,14.25
2023-02-15T11:11:44.747Z,14.07
2023-02-15T11:14:17.096Z,14.50
2023-02-15T11:16:51.323Z,13.50
2023-02-15T11:19:25.685Z,14.30
2023-02-15T11:21:59.236Z,14.65
2023-02-15T11:27:20.313Z,14.10
2023-02-15T11:30:23.717Z,13.45
2023-02-15T11:32:55.507Z,14.23
2023-02-15T11:35:31.154Z,13.82
2023-02-15T11:38:21.342Z,14.57
2023-02-15T11:40:57.360Z,14.43
2023-02-15T11:43:35.806Z,14.55
2023-02-15T11:46:02.701Z,12.55
2023-02-15T11:48:32.470Z,13.52
2023-02-15T11:51:00.574Z,14.95
2023-02-15T11:53:31.835Z,16.02
2023-02-15T11:55:58.583Z,14.35
2023-02-15T11:58:40.032Z,14.23
2023-02-15T12:01:16.329Z,15.23
2023-02-15T12:03:49.883Z,15.18
2023-02-15T12:06:28.959Z,14.00
2023-02-15T12:09:03.765Z,14.00
2023-02-15T12:14:08.008Z,16.88
2023-02-15T12:16:49.729Z,16.45
2023-02-15T12:19:32.272Z,16.70
2023-02-15T12:22:00.602Z,16.33
2023-02-15T12:24:33.527Z,17.02
2023-02-15T12:27:17.457Z,15.98
2023-02-15T12:30:18.615Z,17.02
2023-02-15T12:32:57.518Z,16.52
2023-02-15T12:35:35.982Z,17.30
2023-02-15T12:38:20.493Z,17.70
2023-02-15T12:40:59.201Z,19.35
2023-02-15T12:43:44.085Z,18.08
2023-02-15T12:46:27.061Z,18.60
2023-02-15T12:49:21.433Z,19.27
2023-02-15T12:51:52.962Z,18.55
2023-02-15T12:54:25.618Z,20.35
2023-02-15T12:56:52.800Z,18.23
2023-02-15T12:59:23.592Z,19.65
2023-02-15T13:01:52.628Z,21.55
2023-02-15T13:04:25.357Z,20.80
2023-02-15T13:06:54.725Z,18.73
2023-02-15T13:09:24.200Z,20.92
2023-02-15T13:11:50.858Z,21.05
2023-02-15T13:14:20.366Z,21.85
2023-02-15T13:16:50.238Z,21.73
2023-02-15T13:19:37.997Z,22.05
2023-02-15T13:22:11.701Z,20.23
2023-02-15T13:24:42.334Z,24.00
2023-02-15T13:27:15.945Z,22.83
2023-02-15T13:29:47.786Z,22.63
2023-02-15T13:32:37.363Z,23.40
2023-02-15T13:35:08.160Z,21.25
2023-02-15T13:37:56.606Z,23.15
2023-02-15T13:40:28.958Z,23.05
2023-02-15T13:43:03.279Z,24.02
2023-02-15T13:45:54.027Z,23.92
2023-02-15T13:48:54.413Z,24.13
2023-02-15T13:51:39.483Z,24.30
2023-02-15T13:54:43.315Z,23.33
2023-02-15T13:57:22.646Z,24.23
2023-02-15T14:00:05.893Z,25.83
2023-02-15T14:02:44.972Z,21.17
2023-02-15T14:05:34.753Z,20.52
2023-02-15T14:08:01.704Z,23.50
2023-02-15T14:10:37.277Z,24.25
2023-02-15T14:13:25.388Z,21.95
2023-02-15T14:16:19.227Z,21.10
2023-02-15T14:19:09.844Z,23.58
2023-02-15T14:21:42.337Z,22.00
2023-02-15T14:24:40.873Z,20.83
2023-02-15T14:27:25.120Z,19.60
2023-02-15T14:30:03.053Z,22.07
2023-02-15T14:32:50.625Z,22.30
2023-02-15T14:35:25.971Z,21.45
2023-02-15T14:38:10.777Z,22.85
2023-02-15T14:41:03.643Z,22.85
2023-02-15T14:44:01.505Z,21.40
2023-02-15T14:46:53.182Z,19.85
2023-02-15T14:49:26.500Z,21.85
2023-02-15T14:51:59.008Z,22.25
2023-02-15T14:54:25.676Z,24.65
2023-02-15T14:57:01.132Z,23.58
2023-02-15T14:59:40.047Z,21.58
2023-02-15T15:02:09.747Z,23.75
2023-02-15T15:04:43.311Z,23.50
2023-02-15T15:07:21.788Z,24.70
2023-02-15T15:10:28.579Z,24.38
2023-02-15T15:12:58.888Z,24.45
2023-02-15T15:15:28.649Z,25.83
2023-02-15T15:17:55.379Z,22.67
2023-02-15T15:20:28.168Z,22.60
2023-02-15T15:23:16.326Z,22.77
2023-02-15T15:25:52.982Z,24.38
2023-02-15T15:28:35.165Z,23.90
2023-02-15T15:31:21.163Z,21.73
2023-02-15T15:34:18.895Z,22.80
2023-02-15T15:37:09.946Z,24.77
2023-02-15T15:40:07.270Z,26.05
2023-02-15T15:42:34.695Z,24.98
2023-02-15T15:45:27.561Z,26.17
2023-02-15T15:48:06.565Z,26.27
2023-02-15T15:50:35.218Z,25.33
2023-02-15T15:53:04.356Z,27.15
2023-02-15T15:55:34.678Z,24.05
2023-02-15T15:58:05.705Z,27.08
2023-02-15T16:00:35.104Z,26.80
2023-02-15T16:03:01.796Z,26.58
2023-02-15T16:05:36.773Z,27.35
2023-02-15T16:08:03.488Z,25.95
2023-02-15T16:10:33.680Z,25.65
2023-02-15T16:13:01.412Z,26.00
2023-02-15T16:15:37.070Z,27.25
2023-02-15T16:18:04.679Z,24.83
2023-02-15T16:20:37.745Z,24.65
2023-02-15T16:23:07.234Z,24.88
2023-02-15T16:26:01.971Z,26.50
2023-02-15T16:28:29.387Z,26.23
2023-02-15T16:31:15.300Z,25.60
2023-02-15T16:33:44.248Z,25.40
2023-02-15T16:36:31.086Z,25.60
2023-02-15T16:38:57.699Z,25.33
2023-02-15T16:41:31.323Z,27.45
2023-02-15T16:44:02.267Z,27.13
2023-02-15T16:46:34.166Z,29.98
2023-02-15T16:49:06.124Z,28.70
2023-02-15T16:51:35.103Z,27.23
2023-02-15T16:54:08.074Z,27.27
2023-02-15T16:56:35.670Z,27.05
2023-02-15T16:59:03.130Z,28.45
2023-02-15T17:01:33.039Z,27.20
2023-02-15T17:04:31.224Z,28.30
2023-02-15T17:07:14.790Z,25.90
2023-02-15T17:09:51.876Z,28.13
2023-02-15T17:12:49.768Z,28.55
2023-02-15T17:15:27.256Z,27.10
2023-02-15T17:17:57.489Z,28.50
2023-02-15T17:20:25.533Z,27.85
2023-02-15T17:22:53.800Z,28.90
2023-02-15T17:25:26.927Z,28.98
2023-02-15T17:27:56.096Z,28.00
2023-02-15T17:30:30.412Z,27.92
2023-02-15T17:33:02.994Z,26.35
2023-02-15T17:35:33.898Z,25.75
2023-02-15T17:38:05.576Z,27.70
2023-02-15T17:43:16.464Z,26.25
2023-02-15T17:45:53.027Z,27.67
2023-02-15T17:48:32.797Z,27.30
2023-02-15T17:51:02.732Z,25.73
2023-02-15T17:55:47.379Z,29.73
2023-02-15T17:58:17.041Z,25.98
2023-02-15T18:01:07.642Z,26.13
2023-02-15T18:04:08.201Z,26.50
2023-02-15T18:06:55.827Z,23.65
2023-02-15T18:09:41.418Z,24.38
2023-02-15T18:12:24.178Z,24.23
2023-02-15T18:14:52.394Z,23.70
2023-02-15T18:17:19.452Z,24.25
2023-02-15T18:22:22.696Z,25.73
2023-02-15T18:27:14.309Z,26.55
2023-02-15T18:29:41.401Z,24.35
2023-02-15T18:32:13.786Z,23.73
2023-02-15T18:34:43.089Z,24.80
2023-02-15T18:37:22.187Z,24.08
2023-02-15T18:39:54.215Z,23.67
2023-02-15T18:42:29.158Z,25.52
2023-02-15T18:44:58.274Z,24.80
2023-02-15T18:48:23.824Z,24.98
2023-02-15T18:50:51.141Z,23.77
2023-02-15T18:53:20.832Z,24.70
2023-02-15T18:55:49.702Z,25.48
2023-02-15T18:58:59.748Z,26.70
2023-02-15T19:04:05.227Z,36.53
2023-02-15T19:06:31.871Z,28.52
2023-02-15T19:08:58.553Z,26.85
2023-02-15T19:11:27.257Z,27.00
2023-02-15T19:15:56.258Z,26.75
2023-02-15T19:18:22.898Z,25.65
2023-02-15T19:20:49.611Z,25.35
2023-02-15T19:23:22.754Z,25.00
2023-02-15T19:25:50.677Z,24.83
2023-02-15T19:28:29.546Z,26.17
2023-02-15T19:30:56.267Z,24.25
2023-02-15T19:33:23.861Z,23.80
2023-02-15T19:35:55.559Z,24.98
2023-02-15T19:38:30.856Z,26.73
2023-02-15T19:41:02.438Z,25.58
2023-02-15T19:43:30.236Z,26.08
2023-02-15T19:45:56.999Z,26.15
2023-02-15T19:48:23.791Z,23.92
2023-02-15T19:50:50.724Z,26.23
2023-02-15T19:53:24.752Z,27.70
2023-02-15T19:55:52.204Z,27.50
2023-02-15T19:58:19.675Z,25.15
2023-02-15T20:00:48.641Z,26.98
2023-02-15T20:03:16.352Z,24.95
2023-02-15T20:05:44.439Z,23.52
2023-02-15T20:08:19.950Z,25.73
2023-02-15T20:13:25.796Z,23.02
2023-02-15T20:15:52.569Z,25.73
2023-02-15T20:18:22.090Z,24.60
2023-02-15T20:20:54.527Z,25.42
2023-02-15T20:23:30.707Z,25.17
2023-02-15T20:25:59.835Z,25.70
2023-02-15T20:28:31.653Z,24.00
2023-02-15T20:30:58.574Z,24.35
2023-02-15T20:33:25.363Z,25.20
2023-02-15T20:35:52.434Z,24.10
2023-02-15T20:38:31.175Z,24.58
2023-02-15T20:41:18.265Z,26.02
2023-02-15T20:43:44.959Z,24.17
2023-02-15T20:46:11.819Z,22.98
2023-02-15T20:48:38.679Z,23.73
2023-02-15T20:51:06.162Z,24.05
2023-02-15T20:53:32.810Z,23.38
2023-02-15T20:55:59.550Z,25.77
2023-02-15T21:01:23.336Z,27.50
2023-02-15T21:03:50.151Z,26.42
2023-02-15T21:06:17.814Z,25.27
2023-02-15T21:08:44.924Z,24.88
2023-02-15T21:11:21.095Z,26.25
2023-02-15T21:13:50.049Z,25.70
2023-02-15T21:16:17.213Z,26.30
2023-02-15T21:18:43.833Z,25.88
2023-02-15T21:21:18.378Z,25.70
2023-02-15T21:23:45.080Z,25.55
2023-02-15T21:26:21.723Z,23.02
2023-02-15T21:31:28.767Z,21.10
2023-02-15T21:33:55.562Z,22.20
2023-02-15T21:36:24.462Z,21.73
2023-02-15T21:38:53.779Z,21.85
2023-02-15T21:41:41.755Z,21.13
2023-02-15T21:44:44.740Z,22.95
2023-02-15T21:47:42.555Z,21.70
2023-02-15T21:50:31.098Z,21.17
2023-02-15T21:52:58.800Z,19.83
2023-02-15T21:55:26.098Z,20.13
2023-02-15T21:57:52.766Z,20.92
2023-02-15T22:00:22.112Z,18.88
2023-02-15T22:02:52.338Z,20.05
2023-02-15T22:05:22.314Z,19.48
2023-02-15T22:07:49.110Z,20.08
2023-02-15T22:10:16.121Z,20.98
2023-02-15T22:12:44.101Z,20.88
2023-02-15T22:15:22.534Z,19.50
2023-02-15T22:20:28.998Z,21.27
2023-02-15T22:22:55.751Z,20.85
2023-02-15T22:25:25.193Z,20.15
2023-02-15T22:27:54.694Z,20.17
2023-02-15T22:30:33.093Z,19.40
2023-02-15T22:33:00.740Z,22.25
2023-02-15T22:38:11.845Z,19.80
2023-02-15T22:40:39.735Z,19.88
2023-02-15T22:43:10.954Z,19.23
2023-02-15T22:45:37.784Z,19.02
2023-02-15T22:48:04.593Z,20.48
2023-02-15T22:50:33.155Z,19.83
2023-02-15T22:53:01.246Z,19.45
2023-02-15T22:55:30.879Z,18.02
2023-02-15T22:57:58.169Z,17.98
2023-02-15T23:00:28.219Z,18.23
2023-02-15T23:03:16.790Z,19.05
2023-02-15T23:05:44.109Z,19.63
2023-02-15T23:08:11.595Z,19.05
2023-02-15T23:10:39.537Z,19.20
2023-02-15T23:13:35.580Z,21.70
2023-02-15T23:16:04.701Z,19.52
2023-02-15T23:18:40.399Z,21.55
2023-02-15T23:21:31.973Z,20.58
2023-02-15T23:24:13.498Z,19.88
2023-02-15T23:26:40.132Z,18.13
2023-02-15T23:29:14.239Z,18.95
2023-02-15T23:31:43.799Z,18.40
2023-02-15T23:34:29.177Z,19.15
2023-02-15T23:36:56.862Z,18.92
2023-02-15T23:39:44.371Z,17.30
2023-02-15T23:42:19.468Z,17.15
2023-02-15T23:44:47.853Z,16.45
2023-02-15T23:47:49.745Z,17.02
2023-02-15T23:50:29.044Z,16.73
2023-02-15T23:52:57.041Z,17.08
2023-02-15T23:55:28.381Z,19.73
2023-02-15T23:57:55.051Z,18.20
